createdAt,value
2018-09-22T00:01:00.833Z,52.80
2018-09-22T00:03:27.754Z,52.90
2018-09-22T00:05:54.713Z,52.80
2018-09-22T00:08:21.653Z,52.80
2018-09-22T00:10:48.471Z,52.80
2018-09-22T00:13:15.329Z,52.80
2018-09-22T00:15:42.154Z,52.60
2018-09-22T00:18:08.977Z,52.50
2018-09-22T00:20:35.792Z,52.50
2018-09-22T00:23:02.711Z,52.60
2018-09-22T00:25:29.786Z,52.60
2018-09-22T00:27:56.615Z,52.70
2018-09-22T00:30:23.498Z,52.70
2018-09-22T00:32:50.685Z,52.50
2018-09-22T00:35:17.514Z,51.50
2018-09-22T00:37:44.320Z,51.90
2018-09-22T00:40:11.148Z,52.10
2018-09-22T00:42:38.058Z,52.10
2018-09-22T00:45:04.907Z,52.20
2018-09-22T00:47:31.719Z,52.20
2018-09-22T00:49:58.645Z,52.20
2018-09-22T00:52:25.634Z,52.20
2018-09-22T00:54:52.467Z,52.10
2018-09-22T00:57:19.422Z,52.10
2018-09-22T00:59:46.270Z,52.10
2018-09-22T01:02:14.278Z,52.10
2018-09-22T01:04:41.081Z,52.10
2018-09-22T01:07:07.908Z,52.10
2018-09-22T01:09:34.951Z,52.00
2018-09-22T01:12:01.759Z,52.00
2018-09-22T01:14:28.595Z,52.00
2018-09-22T01:16:55.423Z,51.90
2018-09-22T01:19:22.247Z,51.90
2018-09-22T01:21:49.065Z,51.90
2018-09-22T01:24:15.884Z,51.80
2018-09-22T01:26:42.688Z,51.80
2018-09-22T01:29:09.590Z,51.80
2018-09-22T01:31:36.519Z,51.80
2018-09-22T01:34:03.403Z,51.80
2018-09-22T01:36:30.523Z,51.70
2018-09-22T01:38:57.366Z,51.70
2018-09-22T01:41:24.255Z,51.70
2018-09-22T01:43:51.185Z,51.70
2018-09-22T01:46:18.023Z,51.70
2018-09-22T01:48:44.850Z,51.70
2018-09-22T01:51:11.680Z,51.00
2018-09-22T01:53:38.546Z,50.90
2018-09-22T01:56:05.373Z,51.60
2018-09-22T01:58:32.197Z,51.40
2018-09-22T02:00:59.009Z,51.50
2018-09-22T02:03:25.949Z,51.50
2018-09-22T02:05:52.771Z,51.50
2018-09-22T02:08:19.591Z,51.50
2018-09-22T02:10:46.404Z,51.40
2018-09-22T02:13:13.304Z,51.50
2018-09-22T02:15:40.155Z,51.40
2018-09-22T02:18:07.059Z,51.40
2018-09-22T02:20:33.914Z,51.40
2018-09-22T02:23:00.875Z,51.40
2018-09-22T02:25:27.694Z,51.20
2018-09-22T02:27:54.526Z,51.30
2018-09-22T02:30:21.344Z,51.20
2018-09-22T02:32:48.242Z,51.20
2018-09-22T02:35:15.083Z,51.20
2018-09-22T02:37:41.894Z,51.10
2018-09-22T02:40:08.741Z,51.10
2018-09-22T02:42:35.621Z,51.10
2018-09-22T02:45:02.444Z,51.10
2018-09-22T02:47:29.260Z,51.10
2018-09-22T02:49:56.187Z,51.10
2018-09-22T02:52:23.214Z,51.00
2018-09-22T02:54:50.022Z,51.00
2018-09-22T02:57:16.879Z,51.00
2018-09-22T02:59:43.950Z,51.00
2018-09-22T03:02:11.696Z,51.00
2018-09-22T03:04:38.498Z,50.90
2018-09-22T03:07:05.342Z,50.90
2018-09-22T03:09:32.181Z,50.90
2018-09-22T03:11:58.981Z,50.90
2018-09-22T03:14:25.813Z,50.80
2018-09-22T03:16:52.618Z,50.80
2018-09-22T03:19:19.533Z,50.70
2018-09-22T03:21:46.353Z,50.80
2018-09-22T03:24:13.190Z,50.70
2018-09-22T03:26:40.015Z,50.70
2018-09-22T03:29:06.842Z,50.60
2018-09-22T03:31:33.679Z,50.60
2018-09-22T03:34:00.548Z,50.60
2018-09-22T03:36:27.378Z,50.60
2018-09-22T03:38:54.211Z,50.60
2018-09-22T03:41:21.042Z,50.50
2018-09-22T03:43:47.939Z,50.50
2018-09-22T03:46:14.762Z,50.50
2018-09-22T03:48:41.572Z,50.50
2018-09-22T03:51:08.571Z,50.50
2018-09-22T03:53:35.504Z,51.20
2018-09-22T03:56:02.326Z,50.40
2018-09-22T03:58:29.156Z,50.40
2018-09-22T04:00:56.069Z,50.50
2018-09-22T04:03:23.071Z,50.40
2018-09-22T04:05:49.892Z,50.40
2018-09-22T04:08:16.726Z,50.50
2018-09-22T04:10:43.553Z,50.40
2018-09-22T04:13:10.446Z,50.40
2018-09-22T04:15:37.272Z,50.40
2018-09-22T04:18:04.095Z,50.40
2018-09-22T04:20:30.928Z,50.40
2018-09-22T04:22:57.807Z,50.30
2018-09-22T04:25:24.651Z,50.40
2018-09-22T04:27:51.481Z,50.40
2018-09-22T04:30:18.303Z,50.40
2018-09-22T04:32:45.189Z,50.40
2018-09-22T04:35:12.016Z,50.40
2018-09-22T04:37:38.835Z,50.30
2018-09-22T04:40:05.666Z,50.30
2018-09-22T04:42:32.561Z,50.30
2018-09-22T04:44:59.382Z,50.30
2018-09-22T04:47:26.215Z,50.30
2018-09-22T04:49:53.030Z,50.30
2018-09-22T04:52:19.922Z,50.30
2018-09-22T04:54:46.762Z,50.20
2018-09-22T04:57:13.590Z,50.30
2018-09-22T04:59:40.411Z,50.30
2018-09-22T05:02:07.301Z,50.30
2018-09-22T05:04:34.126Z,50.20
2018-09-22T05:07:00.948Z,50.30
2018-09-22T05:09:27.777Z,50.30
2018-09-22T05:11:54.623Z,50.30
2018-09-22T05:14:21.469Z,50.20
2018-09-22T05:16:48.292Z,50.20
2018-09-22T05:19:15.144Z,50.20
2018-09-22T05:21:41.962Z,50.20
2018-09-22T05:24:08.790Z,50.10
2018-09-22T05:26:35.605Z,50.20
2018-09-22T05:29:02.419Z,49.70
2018-09-22T05:31:29.249Z,49.80
2018-09-22T05:33:56.258Z,50.00
2018-09-22T05:36:23.091Z,49.90
2018-09-22T05:38:49.917Z,50.10
2018-09-22T05:41:16.739Z,50.10
2018-09-22T05:43:43.627Z,50.10
2018-09-22T05:46:10.463Z,50.10
2018-09-22T05:48:37.304Z,50.10
2018-09-22T05:51:04.155Z,50.00
2018-09-22T05:53:31.026Z,50.00
2018-09-22T05:55:57.823Z,50.00
2018-09-22T05:58:24.654Z,50.00
2018-09-22T06:00:51.478Z,50.00
2018-09-22T06:03:18.361Z,50.00
2018-09-22T06:05:45.201Z,50.00
2018-09-22T06:08:12.055Z,49.80
2018-09-22T06:10:38.898Z,49.90
2018-09-22T06:13:05.734Z,49.70
2018-09-22T06:15:32.558Z,49.70
2018-09-22T06:17:59.387Z,49.90
2018-09-22T06:20:26.266Z,49.60
2018-09-22T06:22:53.125Z,49.60
2018-09-22T06:25:19.963Z,49.70
2018-09-22T06:27:46.786Z,49.60
2018-09-22T06:30:13.628Z,49.70
2018-09-22T06:32:40.497Z,49.40
2018-09-22T06:35:07.317Z,49.70
2018-09-22T06:37:34.198Z,49.70
2018-09-22T06:40:00.949Z,49.60
2018-09-22T06:42:27.858Z,49.80
2018-09-22T06:45:01.091Z,49.60
2018-09-22T06:47:27.933Z,49.50
2018-09-22T06:49:54.766Z,49.70
2018-09-22T06:52:23.660Z,49.60
2018-09-22T06:57:27.350Z,49.80
2018-09-22T06:59:54.188Z,49.90
2018-09-22T07:02:21.335Z,50.00
2018-09-22T07:04:48.253Z,50.60
2018-09-22T07:07:15.086Z,50.00
2018-09-22T07:09:41.926Z,50.00
2018-09-22T07:12:08.818Z,45.50
2018-09-22T07:14:35.649Z,44.10
2018-09-22T07:17:02.476Z,44.40
2018-09-22T07:19:29.317Z,45.20
2018-09-22T07:21:56.132Z,46.30
2018-09-22T07:24:35.224Z,46.70
2018-09-22T07:29:45.886Z,46.90
2018-09-22T07:32:13.046Z,47.10
2018-09-22T07:34:39.858Z,46.90
2018-09-22T07:37:06.683Z,47.30
2018-09-22T07:39:33.522Z,47.40
2018-09-22T07:42:00.350Z,47.60
2018-09-22T07:44:27.192Z,47.60
2018-09-22T07:46:54.023Z,47.70
2018-09-22T07:49:20.848Z,47.60
2018-09-22T07:51:47.681Z,47.60
2018-09-22T07:54:14.516Z,47.70
2018-09-22T07:56:41.333Z,47.80
2018-09-22T07:59:08.197Z,46.60
2018-09-22T08:01:35.030Z,44.50
2018-09-22T08:04:02.038Z,45.70
2018-09-22T08:06:28.871Z,46.30
2018-09-22T08:08:55.711Z,46.60
2018-09-22T08:11:22.523Z,46.90
2018-09-22T08:13:49.385Z,46.90
2018-09-22T08:16:16.202Z,47.00
2018-09-22T08:18:43.025Z,47.00
2018-09-22T08:21:09.850Z,46.90
2018-09-22T08:23:36.765Z,47.20
2018-09-22T08:26:03.598Z,47.30
2018-09-22T08:28:30.408Z,47.30
2018-09-22T08:30:57.253Z,47.40
2018-09-22T08:33:24.128Z,47.40
2018-09-22T08:35:50.975Z,47.40
2018-09-22T08:38:17.795Z,47.40
2018-09-22T08:40:44.624Z,47.40
2018-09-22T08:43:11.493Z,47.30
2018-09-22T08:45:38.331Z,47.40
2018-09-22T08:48:05.150Z,47.50
2018-09-22T08:50:31.977Z,47.50
2018-09-22T08:52:58.882Z,47.50
2018-09-22T08:55:25.705Z,47.40
2018-09-22T08:57:52.537Z,47.50
2018-09-22T09:00:19.395Z,47.50
2018-09-22T09:02:46.243Z,47.60
2018-09-22T09:05:13.163Z,47.50
2018-09-22T09:07:39.886Z,47.60
2018-09-22T09:10:06.705Z,47.60
2018-09-22T09:12:33.617Z,47.60
2018-09-22T09:15:00.434Z,47.60
2018-09-22T09:17:27.250Z,47.60
2018-09-22T09:19:54.082Z,47.60
2018-09-22T09:22:20.909Z,47.60
2018-09-22T09:24:47.730Z,47.60
2018-09-22T09:27:14.564Z,47.50
2018-09-22T09:29:41.417Z,47.50
2018-09-22T09:32:08.353Z,48.10
2018-09-22T09:34:35.194Z,47.40
2018-09-22T09:37:02.021Z,47.50
2018-09-22T09:39:28.850Z,47.50
2018-09-22T09:41:55.688Z,47.50
2018-09-22T09:44:22.515Z,47.60
2018-09-22T09:46:49.334Z,47.60
2018-09-22T09:49:16.150Z,47.70
2018-09-22T09:51:42.977Z,47.70
2018-09-22T09:54:09.822Z,48.40
2018-09-22T09:56:36.671Z,47.80
2018-09-22T09:59:03.498Z,47.90
2018-09-22T10:01:30.317Z,47.90
2018-09-22T10:03:57.310Z,47.90
2018-09-22T10:06:24.151Z,47.80
2018-09-22T10:08:50.988Z,47.80
2018-09-22T10:11:17.803Z,47.80
2018-09-22T10:13:44.695Z,47.80
2018-09-22T10:16:11.525Z,47.70
2018-09-22T10:18:38.350Z,47.70
2018-09-22T10:21:05.180Z,47.80
2018-09-22T10:23:32.057Z,48.50
2018-09-22T10:25:58.883Z,47.90
2018-09-22T10:28:25.734Z,48.00
2018-09-22T10:30:52.527Z,47.90
2018-09-22T10:33:19.434Z,48.10
2018-09-22T10:35:46.274Z,48.20
2018-09-22T10:38:13.111Z,48.00
2018-09-22T10:40:39.957Z,48.10
2018-09-22T10:43:06.798Z,48.00
2018-09-22T10:45:33.627Z,48.00
2018-09-22T10:48:00.457Z,48.20
2018-09-22T10:50:27.305Z,48.20
2018-09-22T10:52:54.322Z,48.10
2018-09-22T10:55:21.087Z,48.10
2018-09-22T10:57:47.906Z,48.10
2018-09-22T11:00:14.748Z,48.10
2018-09-22T11:02:41.743Z,48.20
2018-09-22T11:05:08.670Z,48.20
2018-09-22T11:07:35.497Z,48.10
2018-09-22T11:10:02.302Z,48.10
2018-09-22T11:12:29.333Z,48.10
2018-09-22T11:14:56.154Z,48.00
2018-09-22T11:17:23.631Z,48.10
2018-09-22T11:19:50.472Z,48.00
2018-09-22T11:22:17.311Z,48.60
2018-09-22T11:24:44.125Z,48.00
2018-09-22T11:27:10.960Z,47.90
2018-09-22T11:29:37.802Z,47.80
2018-09-22T11:32:04.686Z,47.90
2018-09-22T11:34:31.500Z,48.10
2018-09-22T11:36:58.326Z,48.00
2018-09-22T11:39:25.150Z,48.00
2018-09-22T11:41:51.991Z,48.00
2018-09-22T11:44:18.818Z,47.80
2018-09-22T11:46:45.646Z,47.80
2018-09-22T11:49:12.470Z,47.90
2018-09-22T11:51:39.290Z,47.90
2018-09-22T11:54:06.112Z,47.90
2018-09-22T11:56:32.953Z,47.90
2018-09-22T11:58:59.954Z,47.80
2018-09-22T12:01:26.774Z,47.80
2018-09-22T12:03:53.638Z,47.80
2018-09-22T12:06:20.496Z,47.80
2018-09-22T12:08:47.332Z,47.80
2018-09-22T12:11:14.172Z,47.80
2018-09-22T12:13:41.005Z,47.80
2018-09-22T12:16:07.839Z,47.90
2018-09-22T12:18:34.664Z,47.80
2018-09-22T12:21:01.489Z,47.80
2018-09-22T12:23:28.383Z,47.80
2018-09-22T12:25:55.198Z,47.80
2018-09-22T12:28:22.053Z,48.50
2018-09-22T12:30:48.884Z,47.90
2018-09-22T12:33:15.762Z,47.90
2018-09-22T12:35:42.631Z,47.90
2018-09-22T12:38:09.414Z,47.90
2018-09-22T12:40:36.250Z,47.90
2018-09-22T12:43:03.123Z,47.90
2018-09-22T12:45:29.963Z,47.90
2018-09-22T12:47:56.792Z,47.80
2018-09-22T12:50:23.605Z,47.90
2018-09-22T12:52:50.491Z,47.80
2018-09-22T12:55:17.318Z,47.80
2018-09-22T12:57:44.142Z,47.80
2018-09-22T13:00:10.973Z,47.90
2018-09-22T13:02:37.890Z,47.80
2018-09-22T13:05:04.706Z,47.80
2018-09-22T13:07:31.536Z,47.70
2018-09-22T13:09:58.414Z,47.80
2018-09-22T13:12:25.437Z,47.80
2018-09-22T13:14:52.267Z,47.70
2018-09-22T13:17:20.309Z,47.80
2018-09-22T13:19:47.113Z,47.80
2018-09-22T13:22:14.053Z,47.70
2018-09-22T13:24:40.880Z,47.70
2018-09-22T13:27:07.702Z,47.70
2018-09-22T13:29:34.532Z,47.70
2018-09-22T13:32:01.399Z,47.80
2018-09-22T13:34:28.189Z,47.70
2018-09-22T13:36:55.016Z,47.70
2018-09-22T13:39:21.835Z,47.60
2018-09-22T13:41:48.668Z,47.50
2018-09-22T13:44:15.490Z,47.60
2018-09-22T13:46:42.319Z,47.60
2018-09-22T13:49:09.135Z,47.70
2018-09-22T13:51:35.967Z,47.50
2018-09-22T13:54:02.791Z,47.80
2018-09-22T13:56:29.612Z,47.80
2018-09-22T13:58:56.450Z,47.60
2018-09-22T14:01:23.277Z,47.90
2018-09-22T14:03:50.219Z,47.70
2018-09-22T14:06:17.000Z,47.80
2018-09-22T14:08:43.818Z,47.80
2018-09-22T14:11:10.665Z,47.70
2018-09-22T14:13:37.534Z,47.50
2018-09-22T14:16:04.357Z,47.60
2018-09-22T14:18:31.222Z,47.70
2018-09-22T14:20:58.015Z,47.50
2018-09-22T14:23:24.935Z,47.50
2018-09-22T14:25:51.760Z,47.50
2018-09-22T14:28:18.592Z,47.40
2018-09-22T14:30:45.401Z,47.50
2018-09-22T14:33:12.287Z,47.50
2018-09-22T14:35:39.112Z,47.30
2018-09-22T14:38:05.939Z,47.40
2018-09-22T14:40:32.777Z,47.50
2018-09-22T14:42:59.654Z,47.50
2018-09-22T14:45:26.485Z,47.40
2018-09-22T14:47:53.308Z,47.40
2018-09-22T14:50:20.152Z,47.30
2018-09-22T14:52:47.021Z,47.30
2018-09-22T14:55:13.848Z,47.40
2018-09-22T14:57:40.677Z,47.30
2018-09-22T15:00:07.528Z,47.30
2018-09-22T15:02:34.423Z,47.30
2018-09-22T15:05:01.252Z,47.30
2018-09-22T15:07:28.078Z,47.20
2018-09-22T15:09:54.898Z,47.30
2018-09-22T15:12:21.772Z,47.30
2018-09-22T15:14:48.599Z,47.30
2018-09-22T15:17:15.446Z,47.20
2018-09-22T15:19:42.250Z,47.20
2018-09-22T15:22:09.234Z,47.20
2018-09-22T15:24:36.051Z,47.20
2018-09-22T15:27:02.889Z,47.10
2018-09-22T15:29:29.728Z,47.20
2018-09-22T15:31:56.722Z,47.20
2018-09-22T15:34:23.546Z,47.20
2018-09-22T15:36:50.370Z,47.20
2018-09-22T15:39:17.223Z,47.10
2018-09-22T15:41:44.054Z,47.10
2018-09-22T15:44:10.881Z,47.20
2018-09-22T15:46:37.723Z,47.20
2018-09-22T15:49:04.556Z,47.20
2018-09-22T15:51:31.394Z,47.10
2018-09-22T15:53:58.226Z,47.20
2018-09-22T15:56:25.055Z,47.10
2018-09-22T15:58:51.871Z,47.10
2018-09-22T16:01:18.703Z,47.10
2018-09-22T16:03:45.695Z,47.10
2018-09-22T16:06:12.519Z,47.20
2018-09-22T16:08:39.367Z,47.20
2018-09-22T16:11:06.219Z,47.20
2018-09-22T16:13:33.047Z,47.20
2018-09-22T16:15:59.938Z,47.20
2018-09-22T16:18:26.736Z,47.20
2018-09-22T16:20:53.569Z,47.20
2018-09-22T16:23:20.431Z,47.20
2018-09-22T16:25:47.280Z,47.20
2018-09-22T16:28:14.144Z,47.20
2018-09-22T16:30:40.978Z,47.20
2018-09-22T16:33:08.008Z,47.20
2018-09-22T16:35:34.847Z,47.20
2018-09-22T16:38:01.685Z,47.20
2018-09-22T16:40:28.515Z,47.10
2018-09-22T16:42:55.365Z,47.10
2018-09-22T16:45:22.195Z,47.10
2018-09-22T16:47:49.022Z,47.10
2018-09-22T16:50:15.860Z,47.10
2018-09-22T16:52:42.742Z,47.10
2018-09-22T16:55:09.586Z,47.10
2018-09-22T16:57:36.424Z,47.10
2018-09-22T17:00:03.262Z,47.10
2018-09-22T17:02:30.914Z,47.10
2018-09-22T17:04:57.765Z,47.10
2018-09-22T17:07:24.589Z,47.10
2018-09-22T17:09:51.435Z,47.10
2018-09-22T17:12:18.299Z,47.10
2018-09-22T17:14:45.117Z,47.20
2018-09-22T17:17:11.948Z,47.20
2018-09-22T17:19:38.780Z,47.20
2018-09-22T17:22:05.676Z,47.20
2018-09-22T17:24:32.509Z,47.20
2018-09-22T17:27:09.508Z,47.20
2018-09-22T17:34:58.710Z,47.00
2018-09-22T17:37:26.367Z,47.00
2018-09-22T17:42:32.450Z,47.20
2018-09-22T17:44:59.291Z,47.40
2018-09-22T17:47:27.475Z,47.40
2018-09-22T17:49:54.284Z,47.40
2018-09-22T17:52:21.238Z,47.70
2018-09-22T17:54:48.099Z,47.50
2018-09-22T17:57:14.948Z,47.60
2018-09-22T17:59:41.795Z,47.60
2018-09-22T18:02:08.628Z,47.60
2018-09-22T18:04:35.461Z,47.70
2018-09-22T18:07:02.309Z,47.80
2018-09-22T18:09:29.133Z,47.70
2018-09-22T18:11:56.040Z,47.70
2018-09-22T18:14:22.884Z,47.50
2018-09-22T18:16:49.722Z,47.90
2018-09-22T18:19:16.551Z,47.80
2018-09-22T18:21:43.421Z,47.70
2018-09-22T18:24:10.257Z,47.80
2018-09-22T18:26:37.079Z,47.80
2018-09-22T18:29:03.900Z,47.90
2018-09-22T18:31:30.730Z,47.90
2018-09-22T18:33:57.609Z,47.70
2018-09-22T18:36:24.398Z,47.80
2018-09-22T18:38:51.228Z,47.90
2018-09-22T18:41:18.139Z,47.90
2018-09-22T18:43:45.156Z,48.00
2018-09-22T18:46:11.974Z,48.00
2018-09-22T18:48:38.813Z,48.00
2018-09-22T18:51:05.634Z,48.00
2018-09-22T18:53:32.513Z,48.00
2018-09-22T18:55:59.346Z,48.00
2018-09-22T18:58:26.257Z,47.90
2018-09-22T19:00:53.004Z,47.90
2018-09-22T19:03:19.887Z,47.90
2018-09-22T19:05:46.708Z,47.90
2018-09-22T19:08:13.523Z,48.00
2018-09-22T19:10:40.707Z,48.10
2018-09-22T19:13:07.665Z,48.00
2018-09-22T19:15:34.486Z,48.00
2018-09-22T19:18:01.842Z,48.00
2018-09-22T19:20:28.771Z,48.00
2018-09-22T19:22:55.657Z,48.00
2018-09-22T19:25:22.939Z,48.10
2018-09-22T19:27:49.816Z,48.10
2018-09-22T19:30:16.638Z,48.10
2018-09-22T19:32:44.079Z,48.10
2018-09-22T19:35:10.942Z,48.10
2018-09-22T19:37:37.787Z,48.10
2018-09-22T19:40:04.621Z,48.10
2018-09-22T19:42:31.635Z,48.10
2018-09-22T19:44:58.516Z,48.10
2018-09-22T19:47:26.605Z,48.10
2018-09-22T19:49:53.406Z,48.20
2018-09-22T19:52:20.438Z,48.10
2018-09-22T19:54:48.230Z,48.20
2018-09-22T19:57:15.106Z,48.20
2018-09-22T19:59:41.936Z,48.20
2018-09-22T20:02:08.832Z,48.20
2018-09-22T20:04:35.664Z,48.20
2018-09-22T20:07:02.492Z,48.20
2018-09-22T20:09:29.342Z,48.20
2018-09-22T20:11:56.214Z,48.20
2018-09-22T20:14:23.030Z,48.20
2018-09-22T20:16:49.861Z,47.80
2018-09-22T20:19:16.720Z,48.00
2018-09-22T20:21:43.562Z,48.10
2018-09-22T20:24:10.456Z,48.00
2018-09-22T20:26:37.254Z,48.00
2018-09-22T20:29:04.088Z,48.10
2018-09-22T20:31:30.931Z,48.00
2018-09-22T20:33:57.762Z,48.10
2018-09-22T20:36:24.628Z,48.20
2018-09-22T20:38:51.449Z,48.20
2018-09-22T20:41:18.271Z,48.10
2018-09-22T20:43:45.239Z,48.10
2018-09-22T20:48:49.650Z,48.20
2018-09-22T20:51:16.458Z,48.20
2018-09-22T20:53:43.434Z,48.20
2018-09-22T20:56:10.219Z,48.20
2018-09-22T20:58:37.041Z,48.20
2018-09-22T21:01:03.881Z,48.20
2018-09-22T21:03:30.765Z,48.40
2018-09-22T21:05:57.610Z,48.30
2018-09-22T21:08:24.426Z,48.30
2018-09-22T21:10:51.285Z,48.40
2018-09-22T21:13:18.155Z,48.30
2018-09-22T21:15:44.988Z,48.30
2018-09-22T21:18:11.860Z,48.30
2018-09-22T21:20:38.683Z,48.30
2018-09-22T21:23:05.743Z,48.30
2018-09-22T21:25:32.754Z,48.40
2018-09-22T21:27:59.591Z,48.40
2018-09-22T21:30:26.416Z,48.40
2018-09-22T21:32:53.284Z,48.50
2018-09-22T21:35:20.120Z,48.40
2018-09-22T21:37:46.936Z,48.60
2018-09-22T21:40:13.778Z,48.60
2018-09-22T21:42:40.707Z,48.50
2018-09-22T21:45:07.534Z,48.60
2018-09-22T21:47:35.222Z,48.60
2018-09-22T21:50:02.298Z,48.60
2018-09-22T21:52:29.557Z,48.60
2018-09-22T21:54:56.668Z,48.60
2018-09-22T21:57:23.568Z,48.60
2018-09-22T21:59:50.569Z,48.70
2018-09-22T22:02:17.583Z,48.70
2018-09-22T22:04:44.488Z,48.70
2018-09-22T22:07:16.057Z,48.70
2018-09-22T22:09:42.931Z,48.70
2018-09-22T22:12:09.994Z,48.60
2018-09-22T22:14:36.920Z,48.70
2018-09-22T22:17:05.124Z,48.70
2018-09-22T22:19:32.137Z,48.70
2018-09-22T22:21:59.492Z,48.70
2018-09-22T22:24:26.472Z,48.70
2018-09-22T22:26:53.550Z,48.70
2018-09-22T22:29:21.630Z,48.70
2018-09-22T22:31:48.757Z,48.70
2018-09-22T22:34:15.619Z,48.70
2018-09-22T22:36:42.597Z,48.70
2018-09-22T22:39:14.584Z,48.70
2018-09-22T22:41:41.858Z,48.70
2018-09-22T22:44:09.965Z,48.70
2018-09-22T22:46:52.187Z,48.70
2018-09-22T22:49:19.295Z,48.70
2018-09-22T22:51:46.293Z,48.70
2018-09-22T22:56:53.281Z,48.80
2018-09-22T23:07:16.512Z,48.80
2018-09-22T23:09:47.228Z,48.70
2018-09-22T23:25:54.560Z,48.70
2018-09-22T23:28:21.855Z,48.70
2018-09-22T23:30:59.049Z,48.70
2018-09-22T23:33:30.296Z,48.80
2018-09-22T23:36:13.924Z,48.80
2018-09-22T23:38:49.850Z,48.80
2018-09-22T23:44:16.855Z,48.80
2018-09-22T23:46:43.903Z,48.70
2018-09-22T23:49:11.633Z,48.70
2018-09-22T23:51:39.225Z,48.80
2018-09-22T23:54:06.589Z,48.80
2018-09-22T23:56:40.420Z,48.80
